Time;durP1;ratioP1;P1;durP2;ratioP2;P2;SDS_P1;SDS_P2;PMS_P1;PMS_P2;Temp;Humidity;BMP_temperature;BMP_pressure;BME280_temperature;BME280_humidity;BME280_pressure;Samples;Min_cycle;Max_cycle;Signal;HPM_P1;HPM_P2
2022/01/26 00:07:24;;;;;;;;;50.25;40.50;;;;;;;;5024552;28;45394;-65
2022/01/26 00:09:49;;;;;;;;;43.00;40.00;;;;;;;;5000757;28;46494;-64
2022/01/26 00:12:15;;;;;;;;;41.25;39.50;;;;;;;;5013385;28;45451;-64
2022/01/26 00:14:42;;;;;;;;;40.25;39.25;;;;;;;;5029159;28;45519;-63
2022/01/26 00:17:10;;;;;;;;;53.50;43.00;;;;;;;;5010576;28;46711;-64
2022/01/26 00:19:57;;;;;;;;;;;;;;;;;;;;;
2022/01/26 00:22:34;;;;;;;;;46.25;41.75;;;;;;;;5026379;28;45426;-64
2022/01/26 00:27:52;;;;;;;;;51.25;40.00;;;;;;;;5017202;28;45903;-64
2022/01/26 00:38:59;;;;;;;;;45.25;35.00;;;;;;;;5013957;28;45741;-64
2022/01/26 00:41:22;;;;;;;;;40.25;34.50;;;;;;;;5050269;28;45466;-64
2022/01/26 00:43:52;;;;;;;;;44.00;38.50;;;;;;;;5087952;27;45568;-64
2022/01/26 00:46:18;;;;;;;;;50.00;40.50;;;;;;;;5076491;27;45357;-65
2022/01/26 00:48:47;;;;;;;;;46.00;37.00;;;;;;;;5073215;27;48338;-64
2022/01/26 00:51:16;;;;;;;;;45.25;37.25;;;;;;;;5072387;27;45697;-65
2022/01/26 00:53:45;;;;;;;;;43.25;39.00;;;;;;;;5082953;27;45511;-64
2022/01/26 00:56:11;;;;;;;;;41.75;36.75;;;;;;;;5072794;27;45589;-65
2022/01/26 00:58:37;;;;;;;;;30.25;29.75;;;;;;;;5088368;27;46099;-64
2022/01/26 01:01:03;;;;;;;;;45.25;38.25;;;;;;;;5087255;27;45555;-64
2022/01/26 01:03:31;;;;;;;;;30.25;30.25;;;;;;;;5072331;27;45542;-65
2022/01/26 01:06:01;;;;;;;;;45.00;39.75;;;;;;;;5091481;27;45430;-64
2022/01/26 01:08:27;;;;;;;;;48.00;41.25;;;;;;;;5073644;27;47836;-64
2022/01/26 01:10:53;;;;;;;;;39.25;34.00;;;;;;;;5091483;27;45521;-64
2022/01/26 01:13:22;;;;;;;;;44.50;38.75;;;;;;;;5090021;27;45454;-64
2022/01/26 01:15:48;;;;;;;;;38.25;35.75;;;;;;;;5089087;27;45544;-64
2022/01/26 01:30:45;;;;;;;;;49.00;39.50;;;;;;;;5089269;27;45385;-64
2022/01/26 01:33:15;;;;;;;;;37.50;35.25;;;;;;;;5090063;27;45413;-64
2022/01/26 01:35:43;;;;;;;;;36.75;32.00;;;;;;;;5074925;27;45652;-63
2022/01/26 01:38:17;;;;;;;;;43.50;40.75;;;;;;;;5089719;27;45683;-64
2022/01/26 01:40:44;;;;;;;;;49.75;39.00;;;;;;;;5094186;27;45345;-64
2022/01/26 01:43:09;;;;;;;;;42.50;36.75;;;;;;;;5091288;27;45493;-66
2022/01/26 01:45:42;;;;;;;;;38.50;36.25;;;;;;;;5090805;27;45444;-64
2022/01/26 01:48:08;;;;;;;;;42.50;39.00;;;;;;;;5092294;27;45561;-65
2022/01/26 01:50:39;;;;;;;;;43.25;38.00;;;;;;;;5095210;27;45451;-64
2022/01/26 01:53:05;;;;;;;;;36.75;35.25;;;;;;;;5076068;27;45622;-64
2022/01/26 01:55:32;;;;;;;;;43.75;37.00;;;;;;;;5094260;27;45443;-64
2022/01/26 01:57:57;;;;;;;;;39.00;35.25;;;;;;;;5094308;27;45769;-66
2022/01/26 02:00:26;;;;;;;;;39.25;35.00;;;;;;;;5078561;27;45452;-64
2022/01/26 02:02:52;;;;;;;;;42.50;38.25;;;;;;;;5093157;27;45494;-64
2022/01/26 02:05:17;;;;;;;;;45.50;39.25;;;;;;;;5094874;27;45495;-64
2022/01/26 02:07:42;;;;;;;;;51.50;39.25;;;;;;;;5093931;27;45616;-64
2022/01/26 02:10:09;;;;;;;;;38.75;34.25;;;;;;;;5093553;27;45779;-64
2022/01/26 02:12:37;;;;;;;;;43.75;39.50;;;;;;;;5075497;27;46234;-66
2022/01/26 02:15:09;;;;;;;;;45.50;41.25;;;;;;;;5074782;27;45519;-64
2022/01/26 02:50:15;;;;;;;;;47.00;38.00;;;;;;;;5028406;28;45881;-64
2022/01/26 02:55:15;;;;;;;;;52.25;41.25;;;;;;;;5026314;28;45879;-65
2022/01/26 03:00:23;;;;;;;;;37.25;35.25;;;;;;;;5030350;28;45660;-64
2022/01/26 03:03:09;;;;;;;;;47.00;38.50;;;;;;;;5025944;28;45457;-64
2022/01/26 03:05:42;;;;;;;;;44.25;38.50;;;;;;;;5017908;28;45344;-65
2022/01/26 03:08:07;;;;;;;;;42.75;38.00;;;;;;;;5013296;28;45578;-64
2022/01/26 03:10:55;;;;;;;;;41.75;33.75;;;;;;;;5012104;28;48415;-64
2022/01/26 03:13:25;;;;;;;;;47.25;39.50;;;;;;;;5013496;28;45412;-64
2022/01/26 03:15:59;;;;;;;;;43.25;41.00;;;;;;;;5040521;27;45432;-64
2022/01/26 03:20:55;;;;;;;;;42.75;33.25;;;;;;;;5094234;27;46576;-64
2022/01/26 03:29:10;;;;;;;;;43.00;37.25;;;;;;;;5092633;27;45734;-64
2022/01/26 03:34:19;;;;;;;;;42.75;38.75;;;;;;;;5091959;27;45549;-65
2022/01/26 03:39:13;;;;;;;;;47.25;38.75;;;;;;;;5090680;27;45757;-65
2022/01/26 03:41:42;;;;;;;;;45.50;39.75;;;;;;;;5093631;27;45506;-65
2022/01/26 03:44:08;;;;;;;;;39.50;36.00;;;;;;;;5089827;27;45497;-65
2022/01/26 03:46:34;;;;;;;;;44.50;35.25;;;;;;;;5087932;27;45417;-66
2022/01/26 03:49:00;;;;;;;;;46.50;41.50;;;;;;;;5069482;27;45564;-65
2022/01/26 03:51:25;;;;;;;;;49.00;40.25;;;;;;;;5072118;27;47501;-65
2022/01/26 03:53:51;;;;;;;;;49.00;40.25;;;;;;;;5075409;27;45394;-65
2022/01/26 03:56:16;;;;;;;;;45.75;37.25;;;;;;;;5074314;27;45391;-65
2022/01/26 03:58:41;;;;;;;;;37.50;35.00;;;;;;;;5092441;27;45383;-65
2022/01/26 04:01:06;;;;;;;;;46.50;39.50;;;;;;;;5073891;27;45397;-65
2022/01/26 04:03:31;;;;;;;;;41.00;37.50;;;;;;;;5090901;27;45404;-65
2022/01/26 04:05:57;;;;;;;;;42.50;38.75;;;;;;;;5075262;27;45358;-64
2022/01/26 04:08:27;;;;;;;;;42.25;36.25;;;;;;;;5093360;27;45392;-64
2022/01/26 04:11:08;;;;;;;;;45.50;39.00;;;;;;;;5073606;27;47839;-64
2022/01/26 04:13:33;;;;;;;;;43.00;38.00;;;;;;;;5090406;27;45476;-64
2022/01/26 04:15:59;;;;;;;;;43.25;39.75;;;;;;;;5090359;27;45493;-64
2022/01/26 04:18:30;;;;;;;;;41.75;38.25;;;;;;;;5091240;27;45510;-64
2022/01/26 04:20:59;;;;;;;;;50.50;40.25;;;;;;;;5093230;27;46350;-64
2022/01/26 04:23:34;;;;;;;;;51.75;41.00;;;;;;;;5093340;27;45669;-65
2022/01/26 04:25:59;;;;;;;;;45.75;40.25;;;;;;;;5092030;27;45482;-64
2022/01/26 04:28:31;;;;;;;;;56.25;43.25;;;;;;;;5091904;27;45525;-65
2022/01/26 04:30:56;;;;;;;;;44.50;40.25;;;;;;;;5090676;27;46061;-65
2022/01/26 04:33:21;;;;;;;;;55.00;44.25;;;;;;;;5091210;27;45561;-65
2022/01/26 04:35:48;;;;;;;;;45.50;40.00;;;;;;;;5094181;27;45437;-64
2022/01/26 04:40:47;;;;;;;;;54.25;44.25;;;;;;;;5090160;27;46510;-64
2022/01/26 04:43:18;;;;;;;;;52.00;41.00;;;;;;;;5091520;27;45497;-64
2022/01/26 04:45:43;;;;;;;;;53.00;45.00;;;;;;;;5072173;27;45484;-64
2022/01/26 04:48:09;;;;;;;;;56.50;42.75;;;;;;;;5089092;27;45442;-65
2022/01/26 04:50:34;;;;;;;;;48.50;42.75;;;;;;;;5074209;27;46292;-64
2022/01/26 04:52:59;;;;;;;;;46.75;42.00;;;;;;;;5090261;27;45430;-64
2022/01/26 04:55:24;;;;;;;;;51.25;44.25;;;;;;;;5073181;27;45497;-64
2022/01/26 04:57:49;;;;;;;;;51.00;43.75;;;;;;;;5091922;27;45546;-64
2022/01/26 05:00:15;;;;;;;;;52.25;41.25;;;;;;;;5070479;27;48515;-65
2022/01/26 05:02:40;;;;;;;;;48.25;42.00;;;;;;;;5073482;27;45680;-64
2022/01/26 05:05:05;;;;;;;;;58.50;46.00;;;;;;;;5091746;27;45775;-64
2022/01/26 05:07:31;;;;;;;;;48.00;43.00;;;;;;;;5089864;27;45606;-64
2022/01/26 05:09:56;;;;;;;;;51.50;44.25;;;;;;;;5072370;27;46860;-64
2022/01/26 05:12:22;;;;;;;;;52.00;43.75;;;;;;;;5073165;27;45375;-64
2022/01/26 05:14:48;;;;;;;;;51.75;45.50;;;;;;;;5095156;27;45578;-64
2022/01/26 05:17:15;;;;;;;;;54.00;44.25;;;;;;;;5089406;27;45671;-64
2022/01/26 05:19:40;;;;;;;;;65.50;51.75;;;;;;;;5091971;27;45878;-65
2022/01/26 05:22:05;;;;;;;;;57.25;44.75;;;;;;;;5075884;27;45412;-65
2022/01/26 05:24:31;;;;;;;;;49.25;40.25;;;;;;;;5068053;27;45354;-65
2022/01/26 05:26:56;;;;;;;;;63.25;49.25;;;;;;;;5096039;27;45673;-64
2022/01/26 05:29:22;;;;;;;;;62.75;49.00;;;;;;;;5076906;27;47436;-64
2022/01/26 05:31:47;;;;;;;;;66.50;53.75;;;;;;;;5092724;27;45640;-64
2022/01/26 05:34:12;;;;;;;;;67.25;51.75;;;;;;;;5094269;27;45793;-64
2022/01/26 05:36:38;;;;;;;;;61.75;49.50;;;;;;;;5094665;27;45510;-64
2022/01/26 05:39:03;;;;;;;;;62.25;51.25;;;;;;;;5094591;27;46680;-65
2022/01/26 05:41:28;;;;;;;;;58.50;45.75;;;;;;;;5095219;27;45412;-64
2022/01/26 05:43:53;;;;;;;;;61.00;48.75;;;;;;;;5093589;27;45394;-63
2022/01/26 05:46:30;;;;;;;;;62.00;52.75;;;;;;;;5072678;27;45640;-64
2022/01/26 05:48:56;;;;;;;;;61.00;48.50;;;;;;;;5093444;27;46421;-62
2022/01/26 05:51:22;;;;;;;;;71.25;50.50;;;;;;;;5094528;27;45490;-64
2022/01/26 05:53:47;;;;;;;;;66.50;51.75;;;;;;;;5078423;27;45451;-64
2022/01/26 05:56:12;;;;;;;;;62.00;47.75;;;;;;;;5071764;27;45352;-65
2022/01/26 05:58:37;;;;;;;;;67.00;50.50;;;;;;;;5088355;27;45794;-64
2022/01/26 06:01:03;;;;;;;;;67.00;50.75;;;;;;;;5088546;27;45375;-64
2022/01/26 06:03:29;;;;;;;;;64.75;50.25;;;;;;;;5084591;27;45538;-64
2022/01/26 06:05:54;;;;;;;;;73.00;56.25;;;;;;;;5099240;27;45532;-65
2022/01/26 06:08:22;;;;;;;;;65.75;52.75;;;;;;;;5093826;27;45755;-65
2022/01/26 06:10:48;;;;;;;;;66.50;53.00;;;;;;;;5092746;27;45528;-65
2022/01/26 06:13:13;;;;;;;;;68.25;52.25;;;;;;;;5072644;27;45413;-65
2022/01/26 06:15:38;;;;;;;;;63.00;50.50;;;;;;;;5064454;27;45521;-64
2022/01/26 06:18:04;;;;;;;;;62.50;50.25;;;;;;;;5073289;27;46425;-64
2022/01/26 06:20:29;;;;;;;;;62.50;47.50;;;;;;;;5093199;27;45465;-63
2022/01/26 06:22:54;;;;;;;;;70.75;52.50;;;;;;;;5075369;27;45438;-63
2022/01/26 06:25:21;;;;;;;;;65.75;49.25;;;;;;;;5092670;27;45576;-64
2022/01/26 06:27:48;;;;;;;;;62.25;49.50;;;;;;;;5092901;27;46525;-64
2022/01/26 06:30:13;;;;;;;;;64.75;49.25;;;;;;;;5092800;27;45472;-64
2022/01/26 06:32:39;;;;;;;;;63.50;49.75;;;;;;;;5094314;27;45614;-66
2022/01/26 06:35:06;;;;;;;;;73.50;53.50;;;;;;;;5075351;27;45487;-66
2022/01/26 06:37:31;;;;;;;;;69.25;51.75;;;;;;;;5093513;27;45821;-66
2022/01/26 06:39:56;;;;;;;;;74.00;56.25;;;;;;;;5074691;27;46737;-65
2022/01/26 06:42:26;;;;;;;;;67.75;50.00;;;;;;;;5073572;27;45528;-65
2022/01/26 06:45:08;;;;;;;;;67.25;50.50;;;;;;;;5093865;27;45461;-65
2022/01/26 06:47:53;;;;;;;;;69.50;51.75;;;;;;;;5075373;27;46886;-64
2022/01/26 06:50:19;;;;;;;;;63.25;50.50;;;;;;;;5073937;27;46149;-65
2022/01/26 06:52:46;;;;;;;;;70.50;50.50;;;;;;;;5071796;27;45419;-65
2022/01/26 06:55:11;;;;;;;;;68.50;55.25;;;;;;;;5083934;27;45652;-65
2022/01/26 06:57:37;;;;;;;;;71.50;56.25;;;;;;;;5093542;27;46394;-65
2022/01/26 07:00:03;;;;;;;;;64.00;48.00;;;;;;;;5074585;27;45705;-64
2022/01/26 07:02:28;;;;;;;;;67.75;51.75;;;;;;;;5093262;27;45377;-65
2022/01/26 07:04:54;;;;;;;;;73.00;55.00;;;;;;;;5093316;27;45530;-65
2022/01/26 07:07:19;;;;;;;;;66.25;55.00;;;;;;;;5074549;27;48335;-65
2022/01/26 07:09:44;;;;;;;;;71.50;52.75;;;;;;;;5093472;27;45308;-65
2022/01/26 07:12:10;;;;;;;;;69.00;55.00;;;;;;;;5093199;27;45306;-65
2022/01/26 07:22:46;;;;;;;;;67.00;52.25;;;;;;;;5061876;28;45543;-65
2022/01/26 07:25:12;;;;;;;;;56.75;45.00;;;;;;;;5070371;28;45563;-66
2022/01/26 07:27:37;;;;;;;;;66.50;52.00;;;;;;;;5070936;28;45410;-66
2022/01/26 07:30:03;;;;;;;;;63.00;53.00;;;;;;;;5065232;28;45485;-67
2022/01/26 07:32:30;;;;;;;;;59.00;48.25;;;;;;;;5064597;28;45579;-66
2022/01/26 07:34:55;;;;;;;;;69.00;54.75;;;;;;;;5067307;28;45719;-66
2022/01/26 07:37:21;;;;;;;;;55.25;44.00;;;;;;;;5052738;28;48459;-66
2022/01/26 07:40:02;;;;;;;;;65.00;52.50;;;;;;;;5072296;28;47686;-65
2022/01/26 07:42:27;;;;;;;;;62.75;48.50;;;;;;;;5052562;28;45546;-66
2022/01/26 07:44:52;;;;;;;;;66.25;54.75;;;;;;;;5068962;28;45421;-66
2022/01/26 07:47:17;;;;;;;;;60.75;48.00;;;;;;;;5064979;28;50609;-66
2022/01/26 07:49:43;;;;;;;;;65.75;53.50;;;;;;;;5066775;28;45685;-64
2022/01/26 07:52:08;;;;;;;;;66.50;54.50;;;;;;;;5069517;28;45349;-66
2022/01/26 07:54:33;;;;;;;;;70.25;55.00;;;;;;;;5069791;28;45533;-66
2022/01/26 07:57:00;;;;;;;;;68.50;56.50;;;;;;;;5049953;28;45398;-66
2022/01/26 07:59:26;;;;;;;;;63.50;52.50;;;;;;;;5068375;28;45417;-65
2022/01/26 08:01:51;;;;;;;;;66.00;52.25;;;;;;;;5062295;28;45867;-66
2022/01/26 08:04:16;;;;;;;;;67.75;52.75;;;;;;;;5067894;28;45425;-65
2022/01/26 08:06:41;;;;;;;;;67.75;52.25;;;;;;;;5070770;28;45620;-66
2022/01/26 08:09:07;;;;;;;;;63.25;48.50;;;;;;;;5067215;28;45347;-65
2022/01/26 08:11:32;;;;;;;;;60.00;49.75;;;;;;;;5068244;28;45377;-66
2022/01/26 08:13:58;;;;;;;;;66.00;52.25;;;;;;;;5065806;27;45441;-67
2022/01/26 08:16:23;;;;;;;;;66.00;50.75;;;;;;;;5060818;27;46354;-66
2022/01/26 08:18:49;;;;;;;;;61.25;51.00;;;;;;;;5069642;28;45549;-65
2022/01/26 08:21:15;;;;;;;;;61.00;50.50;;;;;;;;5055258;27;45400;-66
2022/01/26 08:23:43;;;;;;;;;61.50;51.75;;;;;;;;5084431;27;45477;-66
2022/01/26 08:26:08;;;;;;;;;67.75;50.25;;;;;;;;5090783;27;45848;-66
2022/01/26 08:28:38;;;;;;;;;66.50;52.00;;;;;;;;5091514;27;45514;-65
2022/01/26 08:31:03;;;;;;;;;66.75;52.50;;;;;;;;5091218;27;45565;-64
2022/01/26 08:33:28;;;;;;;;;60.50;50.50;;;;;;;;5091757;27;45398;-65
2022/01/26 08:35:54;;;;;;;;;69.00;54.75;;;;;;;;5092947;27;45775;-65
2022/01/26 08:38:19;;;;;;;;;71.00;52.00;;;;;;;;5091395;27;45564;-66
2022/01/26 08:40:46;;;;;;;;;68.25;55.50;;;;;;;;5068585;27;45634;-65
2022/01/26 08:43:12;;;;;;;;;66.50;53.75;;;;;;;;5069779;27;45443;-66
2022/01/26 08:45:37;;;;;;;;;65.00;51.50;;;;;;;;5087915;27;45695;-64
2022/01/26 08:48:02;;;;;;;;;56.25;45.00;;;;;;;;5057842;27;45476;-66
2022/01/26 08:50:28;;;;;;;;;63.75;50.75;;;;;;;;5090079;27;45815;-65
2022/01/26 08:52:53;;;;;;;;;62.75;50.50;;;;;;;;5071182;27;45737;-65
2022/01/26 08:55:19;;;;;;;;;62.75;48.25;;;;;;;;5090929;27;46890;-65
2022/01/26 08:57:44;;;;;;;;;61.25;50.25;;;;;;;;5072347;27;46133;-65
2022/01/26 09:00:11;;;;;;;;;65.50;52.00;;;;;;;;5091513;27;45518;-66
2022/01/26 09:02:36;;;;;;;;;64.75;51.50;;;;;;;;5093216;27;45475;-67
2022/01/26 09:05:04;;;;;;;;;66.75;53.25;;;;;;;;5072613;27;48602;-67
2022/01/26 09:07:29;;;;;;;;;66.50;52.00;;;;;;;;5090954;27;45583;-67
2022/01/26 09:09:58;;;;;;;;;61.75;50.75;;;;;;;;5091082;27;45349;-67
2022/01/26 09:12:25;;;;;;;;;65.25;51.25;;;;;;;;5072146;27;45513;-67
2022/01/26 09:14:50;;;;;;;;;64.75;51.25;;;;;;;;5091804;27;46131;-67
2022/01/26 09:17:16;;;;;;;;;67.00;51.00;;;;;;;;5088833;27;45764;-67
2022/01/26 09:19:43;;;;;;;;;59.25;47.25;;;;;;;;5090343;27;45353;-67
2022/01/26 09:22:09;;;;;;;;;67.50;52.25;;;;;;;;5072490;27;45510;-66
2022/01/26 09:24:36;;;;;;;;;64.50;53.00;;;;;;;;5091310;27;46692;-66
2022/01/26 09:27:02;;;;;;;;;72.50;55.00;;;;;;;;5088491;27;47887;-66
2022/01/26 09:29:27;;;;;;;;;71.75;55.00;;;;;;;;5081569;27;45478;-66
2022/01/26 09:31:52;;;;;;;;;72.25;55.00;;;;;;;;5083004;27;45554;-66
2022/01/26 09:34:19;;;;;;;;;59.75;50.00;;;;;;;;5089942;27;46107;-66
2022/01/26 09:36:44;;;;;;;;;62.50;49.25;;;;;;;;5091025;27;45471;-67
2022/01/26 09:39:10;;;;;;;;;60.25;49.50;;;;;;;;5071657;27;45374;-67
2022/01/26 09:41:37;;;;;;;;;62.50;47.75;;;;;;;;5077643;27;45482;-67
2022/01/26 09:44:03;;;;;;;;;69.00;49.25;;;;;;;;5068832;27;45802;-67
2022/01/26 09:46:29;;;;;;;;;70.25;52.75;;;;;;;;5083145;27;45502;-67
2022/01/26 09:48:54;;;;;;;;;58.25;47.00;;;;;;;;5079892;27;45472;-67
2022/01/26 09:51:20;;;;;;;;;59.75;47.25;;;;;;;;5072881;27;45295;-67
2022/01/26 09:53:57;;;;;;;;;61.25;48.00;;;;;;;;5092602;27;46321;-66
2022/01/26 09:56:22;;;;;;;;;58.25;46.25;;;;;;;;5090182;27;45542;-66
2022/01/26 09:58:48;;;;;;;;;67.50;51.25;;;;;;;;5090795;27;45492;-67
2022/01/26 10:01:13;;;;;;;;;61.50;48.00;;;;;;;;5089921;27;46291;-67
2022/01/26 10:03:42;;;;;;;;;69.25;52.50;;;;;;;;5091744;27;46922;-67
2022/01/26 10:06:17;;;;;;;;;61.50;48.75;;;;;;;;5093430;27;45420;-67
2022/01/26 10:19:10;;;;;;;;;68.00;54.00;;;;;;;;5092653;27;45466;-66
2022/01/26 10:21:53;;;;;;;;;65.75;51.50;;;;;;;;5074952;27;45661;-66
2022/01/26 10:24:24;;;;;;;;;59.25;48.50;;;;;;;;5059105;27;47999;-66
2022/01/26 10:26:56;;;;;;;;;60.50;49.50;;;;;;;;5091442;27;45523;-67
2022/01/26 10:29:21;;;;;;;;;63.50;50.00;;;;;;;;5092912;27;45519;-66
2022/01/26 10:31:46;;;;;;;;;59.50;49.75;;;;;;;;5093443;27;45649;-66
2022/01/26 10:34:16;;;;;;;;;77.75;56.00;;;;;;;;5075036;27;45268;-67
2022/01/26 10:36:41;;;;;;;;;70.50;52.75;;;;;;;;5093225;27;45381;-67
2022/01/26 10:39:11;;;;;;;;;64.00;51.75;;;;;;;;5093566;27;45582;-68
2022/01/26 10:41:38;;;;;;;;;67.25;53.75;;;;;;;;5095517;27;45506;-67
2022/01/26 10:44:04;;;;;;;;;66.75;52.75;;;;;;;;5074750;27;46492;-66
2022/01/26 10:46:32;;;;;;;;;60.50;46.50;;;;;;;;5091344;27;45692;-65
2022/01/26 10:49:08;;;;;;;;;67.50;52.00;;;;;;;;5092395;27;45507;-65
2022/01/26 10:54:21;;;;;;;;;63.75;52.00;;;;;;;;5091830;27;46415;-66
2022/01/26 10:56:47;;;;;;;;;64.25;51.75;;;;;;;;5093554;27;45557;-65
2022/01/26 10:59:13;;;;;;;;;62.50;48.75;;;;;;;;5093282;27;45771;-66
2022/01/26 11:01:39;;;;;;;;;64.00;49.00;;;;;;;;5090739;27;45856;-66
2022/01/26 11:04:04;;;;;;;;;58.50;44.50;;;;;;;;5092061;27;45420;-66
2022/01/26 11:06:29;;;;;;;;;71.50;53.25;;;;;;;;5092707;27;45352;-67
2022/01/26 11:08:58;;;;;;;;;61.75;48.50;;;;;;;;5093902;27;45453;-67
2022/01/26 11:11:24;;;;;;;;;55.75;46.75;;;;;;;;5089041;27;45976;-67
2022/01/26 11:13:49;;;;;;;;;61.25;51.25;;;;;;;;5093030;27;45843;-67
2022/01/26 11:16:16;;;;;;;;;59.00;47.25;;;;;;;;5062452;27;45646;-67
2022/01/26 11:18:51;;;;;;;;;67.25;52.75;;;;;;;;5092399;27;45738;-66
2022/01/26 11:21:43;;;;;;;;;51.75;43.25;;;;;;;;5074009;27;45398;-67
2022/01/26 11:24:18;;;;;;;;;52.00;44.50;;;;;;;;5070791;27;47815;-67
2022/01/26 11:26:45;;;;;;;;;61.00;46.00;;;;;;;;5083957;27;44776;-66
2022/01/26 11:29:22;;;;;;;;;67.50;52.75;;;;;;;;5072366;27;45472;-66
2022/01/26 11:31:58;;;;;;;;;59.75;48.50;;;;;;;;5090113;27;45455;-65
2022/01/26 11:34:26;;;;;;;;;67.00;49.75;;;;;;;;5091898;27;46211;-66
2022/01/26 11:36:51;;;;;;;;;67.50;52.25;;;;;;;;5091009;27;45455;-66
2022/01/26 11:45:12;;;;;;;;;66.00;54.50;;;;;;;;5010571;28;46195;-67
2022/01/26 11:47:39;;;;;;;;;64.00;52.75;;;;;;;;5009164;28;45583;-66
2022/01/26 11:50:06;;;;;;;;;62.00;51.75;;;;;;;;5012798;28;45651;-65
2022/01/26 11:52:37;;;;;;;;;60.00;50.00;;;;;;;;5017010;28;45775;-66
2022/01/26 11:55:17;;;;;;;;;69.50;54.75;;;;;;;;4998275;28;48473;-66
2022/01/26 11:57:52;;;;;;;;;66.25;54.00;;;;;;;;4996358;28;45715;-65
2022/01/26 12:03:19;;;;;;;;;75.25;56.00;;;;;;;;4926912;28;45732;-65
2022/01/26 12:05:46;;;;;;;;;76.75;58.00;;;;;;;;4918445;28;46140;-64
2022/01/26 12:08:11;;;;;;;;;73.50;56.50;;;;;;;;4914669;28;46081;-64
2022/01/26 12:10:38;;;;;;;;;66.00;50.75;;;;;;;;4930610;28;45563;-64
2022/01/26 12:13:11;;;;;;;;;53.50;45.25;;;;;;;;4920615;28;45587;-64
2022/01/26 12:15:57;;;;;;;;;69.75;52.50;;;;;;;;4928777;28;45769;-65
2022/01/26 12:42:42;;;;;;;;;70.75;53.00;;;;;;;;5007561;28;45645;-64
2022/01/26 12:45:07;;;;;;;;;68.50;53.50;;;;;;;;4990268;28;45524;-65
2022/01/26 12:47:33;;;;;;;;;67.25;52.00;;;;;;;;4998853;28;46824;-67
2022/01/26 12:49:58;;;;;;;;;73.75;58.50;;;;;;;;4994571;28;45474;-65
2022/01/26 12:52:24;;;;;;;;;74.00;57.25;;;;;;;;4993234;28;45245;-66
2022/01/26 12:54:49;;;;;;;;;70.75;55.50;;;;;;;;4997436;28;45454;-65
2022/01/26 12:57:15;;;;;;;;;66.25;53.50;;;;;;;;5007401;28;45474;-64
2022/01/26 12:59:40;;;;;;;;;74.25;55.75;;;;;;;;5006144;28;45586;-64
2022/01/26 13:02:05;;;;;;;;;73.00;55.75;;;;;;;;5002659;28;45561;-68
2022/01/26 13:04:31;;;;;;;;;67.25;53.25;;;;;;;;4988573;28;45333;-67
2022/01/26 13:06:56;;;;;;;;;69.00;54.25;;;;;;;;4993682;28;46296;-66
2022/01/26 13:09:25;;;;;;;;;80.75;62.75;;;;;;;;5009266;28;45507;-66
2022/01/26 13:11:51;;;;;;;;;73.75;56.25;;;;;;;;5008417;28;45443;-66
2022/01/26 13:14:27;;;;;;;;;67.75;54.75;;;;;;;;5006478;28;45401;-67
2022/01/26 13:17:12;;;;;;;;;76.25;63.00;;;;;;;;5004902;28;46465;-66
2022/01/26 13:19:58;;;;;;;;;75.00;56.00;;;;;;;;5061000;27;45484;-66
2022/01/26 13:27:51;;;;;;;;;78.25;61.50;;;;;;;;5090130;27;45574;-66
2022/01/26 13:51:11;;;;;;;;;66.00;52.75;;;;;;;;5078408;27;45432;-65
2022/01/26 13:54:11;;;;;;;;;57.50;48.50;;;;;;;;5060962;28;45942;-65
2022/01/26 13:56:50;;;;;;;;;70.75;55.50;;;;;;;;5080265;27;45475;-63
2022/01/26 14:01:44;;;;;;;;;63.25;50.00;;;;;;;;5079544;27;45942;-64
2022/01/26 14:04:11;;;;;;;;;68.00;53.25;;;;;;;;5079638;27;45669;-64
2022/01/26 14:06:36;;;;;;;;;62.25;50.00;;;;;;;;5091800;27;45602;-65
2022/01/26 14:09:01;;;;;;;;;62.50;50.50;;;;;;;;5090109;27;45690;-65
2022/01/26 14:11:26;;;;;;;;;59.25;48.50;;;;;;;;5080638;27;45444;-64
2022/01/26 14:13:55;;;;;;;;;61.00;48.25;;;;;;;;5062925;28;45582;-65
2022/01/26 14:16:22;;;;;;;;;62.75;49.25;;;;;;;;5059058;28;45806;-64
2022/01/26 14:19:05;;;;;;;;;63.50;50.00;;;;;;;;5078346;27;46613;-64
2022/01/26 14:22:06;;;;;;;;;63.25;50.75;;;;;;;;5076885;27;45795;-64
2022/01/26 14:27:12;;;;;;;;;66.75;52.00;;;;;;;;5077269;27;48954;-64
2022/01/26 14:29:57;;;;;;;;;50.25;42.75;;;;;;;;5080217;27;46360;-64
2022/01/26 14:32:45;;;;;;;;;43.00;39.75;;;;;;;;5088900;27;46014;-64
2022/01/26 14:35:24;;;;;;;;;42.25;39.00;;;;;;;;5081259;27;45428;-66
2022/01/26 14:51:49;;;;;;;;;59.75;48.25;;;;;;;;5076462;27;45426;-65
2022/01/26 15:50:41;;;;;;;;;45.00;39.00;;;;;;;;5081354;27;45566;-65
2022/01/26 15:58:29;;;;;;;;;55.25;43.25;;;;;;;;5090643;27;45448;-64
2022/01/26 16:20:08;;;;;;;;;62.75;52.00;;;;;;;;5088968;27;45423;-64
2022/01/26 17:11:28;;;;;;;;;67.25;54.75;;;;;;;;5090290;27;45743;-64
2022/01/26 17:47:58;;;;;;;;;66.00;54.25;;;;;;;;4954896;28;45715;-64
2022/01/26 18:49:30;;;;;;;;;67.25;54.00;;;;;;;;4953532;28;45682;-65
2022/01/26 18:51:56;;;;;;;;;56.25;46.75;;;;;;;;4949272;28;45444;-65
2022/01/26 18:54:24;;;;;;;;;70.00;53.50;;;;;;;;4960707;28;45397;-67
2022/01/26 18:56:50;;;;;;;;;67.25;53.00;;;;;;;;4956607;28;45479;-64
2022/01/26 18:59:17;;;;;;;;;67.75;54.00;;;;;;;;4992602;28;45609;-64
2022/01/26 19:01:43;;;;;;;;;60.50;49.50;;;;;;;;5014971;28;45534;-64
2022/01/26 19:04:08;;;;;;;;;66.25;49.50;;;;;;;;4995459;28;45615;-65
2022/01/26 19:06:37;;;;;;;;;62.50;49.00;;;;;;;;5021691;28;45488;-64
2022/01/26 19:09:03;;;;;;;;;66.75;53.50;;;;;;;;5015485;28;45550;-66
2022/01/26 19:11:28;;;;;;;;;66.00;51.00;;;;;;;;5019013;28;45502;-65
2022/01/26 19:13:53;;;;;;;;;65.25;51.50;;;;;;;;5016983;28;45439;-65
2022/01/26 19:19:03;;;;;;;;;70.50;55.00;;;;;;;;5056593;27;45672;-65
2022/01/26 19:26:52;;;;;;;;;65.00;51.75;;;;;;;;5080832;27;45505;-65
2022/01/26 19:29:32;;;;;;;;;73.25;56.25;;;;;;;;5054229;28;49012;-66
2022/01/26 19:40:28;;;;;;;;;59.25;47.75;;;;;;;;5066747;27;45724;-67
2022/01/26 19:50:50;;;;;;;;;62.75;49.25;;;;;;;;5070609;27;46530;-67
2022/01/26 19:53:16;;;;;;;;;60.25;49.00;;;;;;;;5059838;28;45475;-67
2022/01/26 19:55:41;;;;;;;;;66.00;53.75;;;;;;;;5061934;27;45305;-65
2022/01/26 19:58:08;;;;;;;;;71.00;55.25;;;;;;;;5068928;27;45371;-64
2022/01/26 20:00:34;;;;;;;;;72.25;55.50;;;;;;;;5044957;28;47878;-66
2022/01/26 20:03:00;;;;;;;;;68.75;55.00;;;;;;;;5072232;27;45420;-66
2022/01/26 20:05:26;;;;;;;;;70.25;57.25;;;;;;;;5074041;27;45496;-67
2022/01/26 20:07:58;;;;;;;;;69.00;52.50;;;;;;;;5076316;27;46088;-65
2022/01/26 20:10:31;;;;;;;;;65.75;52.75;;;;;;;;5037315;28;48435;-66
2022/01/26 20:13:14;;;;;;;;;71.25;57.00;;;;;;;;5074269;27;45549;-64
2022/01/26 20:15:39;;;;;;;;;63.25;51.00;;;;;;;;5067761;28;45630;-66
2022/01/26 20:18:04;;;;;;;;;67.25;53.00;;;;;;;;5060844;27;45890;-65
2022/01/26 20:20:30;;;;;;;;;66.75;55.75;;;;;;;;5061404;27;46454;-65
2022/01/26 20:22:55;;;;;;;;;69.00;50.50;;;;;;;;5045705;28;45620;-65
2022/01/26 20:25:21;;;;;;;;;57.75;49.25;;;;;;;;5042084;28;45539;-66
2022/01/26 20:27:47;;;;;;;;;70.00;54.50;;;;;;;;5046624;28;45586;-66
2022/01/26 20:30:18;;;;;;;;;68.25;51.75;;;;;;;;5061781;28;45966;-65
2022/01/26 20:32:46;;;;;;;;;61.00;48.25;;;;;;;;5064787;28;45779;-65
2022/01/26 20:35:12;;;;;;;;;70.75;55.50;;;;;;;;5044946;28;45587;-64
2022/01/26 20:37:37;;;;;;;;;69.75;54.00;;;;;;;;5073233;27;45560;-64
2022/01/26 20:40:03;;;;;;;;;64.75;51.25;;;;;;;;5064744;27;46690;-64
2022/01/26 20:42:29;;;;;;;;;62.50;50.50;;;;;;;;5049549;28;46398;-62
2022/01/26 20:44:54;;;;;;;;;74.25;55.75;;;;;;;;5068057;28;45500;-64
2022/01/26 20:47:19;;;;;;;;;63.50;50.00;;;;;;;;5057663;28;45652;-64
2022/01/26 20:49:45;;;;;;;;;69.50;53.25;;;;;;;;5044746;28;47410;-64
2022/01/26 20:52:10;;;;;;;;;70.75;53.50;;;;;;;;5069814;28;45545;-63
2022/01/26 20:54:35;;;;;;;;;63.00;50.50;;;;;;;;5038953;28;45529;-64
2022/01/26 20:57:00;;;;;;;;;70.50;51.50;;;;;;;;5068153;27;45406;-66
2022/01/26 20:59:26;;;;;;;;;65.50;52.25;;;;;;;;5070074;28;46663;-67
2022/01/26 21:01:51;;;;;;;;;66.00;52.75;;;;;;;;5059538;28;45459;-67
2022/01/26 21:04:16;;;;;;;;;66.50;52.75;;;;;;;;5046011;28;45833;-64
2022/01/26 21:06:41;;;;;;;;;68.00;54.25;;;;;;;;5072100;27;45460;-66
2022/01/26 21:09:07;;;;;;;;;58.75;43.50;;;;;;;;5070629;28;46913;-68
2022/01/26 21:11:32;;;;;;;;;69.75;54.25;;;;;;;;5052237;28;45600;-66
2022/01/26 21:13:58;;;;;;;;;63.00;51.00;;;;;;;;5049000;27;45532;-66
2022/01/26 21:16:24;;;;;;;;;65.25;49.75;;;;;;;;5066901;28;46134;-67
2022/01/26 21:18:52;;;;;;;;;59.00;45.50;;;;;;;;5059692;28;45825;-68
2022/01/26 21:21:17;;;;;;;;;69.00;54.00;;;;;;;;5048330;27;45559;-67
2022/01/26 21:23:42;;;;;;;;;60.25;46.75;;;;;;;;5073136;27;45444;-68
2022/01/26 21:26:07;;;;;;;;;61.75;47.00;;;;;;;;5082843;27;45514;-66
2022/01/26 21:28:33;;;;;;;;;59.75;49.25;;;;;;;;5070669;27;47446;-66
2022/01/26 21:30:58;;;;;;;;;58.50;47.00;;;;;;;;5088277;27;45468;-66
2022/01/26 21:33:26;;;;;;;;;65.75;50.75;;;;;;;;5085296;27;46011;-67